Time;durP1;ratioP1;P1;durP2;ratioP2;P2;SDS_P1;SDS_P2;PMS_P1;PMS_P2;Temp;Humidity;BMP_temperature;BMP_pressure;BME280_temperature;BME280_humidity;BME280_pressure;Samples;Min_cycle;Max_cycle;Signal;HPM_P1;HPM_P2
2022/03/01 00:02:12;;;;;;;25.77;11.43;;;;;;;0.75;100.00;102655.41;7389231;19;20641;-48
2022/03/01 00:04:42;;;;;;;34.80;11.13;;;;;;;0.61;100.00;102653.84;7393740;19;20162;-50
2022/03/01 00:07:12;;;;;;;23.52;9.60;;;;;;;0.71;100.00;102659.97;7391301;19;20197;-48
2022/03/01 00:09:44;;;;;;;35.03;12.30;;;;;;;0.66;100.00;102652.75;7394663;19;20130;-46
2022/03/01 00:12:14;;;;;;;23.42;10.20;;;;;;;0.64;100.00;102655.84;7390903;19;20213;-50
2022/03/01 00:14:43;;;;;;;21.90;10.27;;;;;;;0.65;100.00;102660.19;7393582;19;20167;-48
2022/03/01 00:17:13;;;;;;;25.10;10.68;;;;;;;0.65;100.00;102666.19;7390634;19;20194;-47
2022/03/01 00:19:42;;;;;;;23.45;10.20;;;;;;;0.54;100.00;102671.69;7393739;19;20142;-47
2022/03/01 00:22:11;;;;;;;24.92;10.85;;;;;;;0.56;100.00;102665.13;7388290;19;20190;-47
2022/03/01 00:24:44;;;;;;;23.27;9.80;;;;;;;0.60;100.00;102661.28;7393251;19;20524;-46
2022/03/01 00:27:14;;;;;;;25.48;10.63;;;;;;;0.69;100.00;102657.25;7391448;19;20201;-47
2022/03/01 00:29:43;;;;;;;26.10;11.05;;;;;;;0.54;100.00;102661.53;7393958;19;20138;-46
2022/03/01 00:32:13;;;;;;;25.58;11.10;;;;;;;0.53;100.00;102664.81;7390717;19;20201;-47
2022/03/01 00:34:42;;;;;;;20.95;10.30;;;;;;;0.51;100.00;102666.28;7393053;19;20253;-49
2022/03/01 00:37:12;;;;;;;26.38;9.85;;;;;;;0.88;100.00;102660.22;7389149;19;20190;-46
2022/03/01 00:39:44;;;;;;;22.60;10.07;;;;;;;0.66;100.00;102660.38;7391983;19;20119;-47
2022/03/01 00:42:13;;;;;;;19.55;9.07;;;;;;;0.54;100.00;102656.44;7387326;19;20190;-49
2022/03/01 00:44:43;;;;;;;30.27;11.52;;;;;;;0.59;100.00;102660.41;7393040;19;20504;-49
2022/03/01 00:47:12;;;;;;;22.52;9.82;;;;;;;0.51;100.00;102654.44;7389583;19;20197;-46
2022/03/01 00:49:42;;;;;;;23.10;10.65;;;;;;;0.46;100.00;102644.53;7393012;19;20123;-46
2022/03/01 00:52:11;;;;;;;25.02;10.30;;;;;;;0.46;100.00;102647.94;7389969;19;20193;-47
2022/03/01 00:54:44;;;;;;;22.42;9.63;;;;;;;0.51;100.00;102640.88;7390996;19;20169;-47
2022/03/01 00:57:13;;;;;;;25.15;10.90;;;;;;;0.47;100.00;102631.97;7387612;19;20202;-47
2022/03/01 00:59:43;;;;;;;22.92;9.82;;;;;;;0.39;100.00;102646.38;7391962;19;20458;-46
2022/03/01 01:02:12;;;;;;;23.20;10.20;;;;;;;0.37;100.00;102649.47;7388689;19;20664;-48
2022/03/01 01:04:42;;;;;;;28.65;10.60;;;;;;;0.29;100.00;102637.53;7392194;19;20162;-47
2022/03/01 01:07:11;;;;;;;24.88;10.10;;;;;;;0.36;100.00;102635.84;7390119;19;20190;-46
2022/03/01 01:09:43;;;;;;;27.70;11.05;;;;;;;0.28;100.00;102633.16;7394166;19;20149;-46
2022/03/01 01:12:13;;;;;;;23.50;9.93;;;;;;;0.36;100.00;102640.03;7388197;19;20186;-48
2022/03/01 01:14:42;;;;;;;25.27;11.07;;;;;;;0.32;100.00;102636.25;7391823;19;20159;-46
2022/03/01 01:17:13;;;;;;;29.98;10.43;;;;;;;0.47;100.00;102638.69;7387048;19;20217;-46
2022/03/01 01:19:43;;;;;;;24.55;10.50;;;;;;;0.55;100.00;102637.91;7395118;19;20134;-48
2022/03/01 01:25:03;;;;;;;23.83;10.65;;;;;;;0.29;100.00;102632.47;7391389;19;20171;-47
2022/03/01 01:27:33;;;;;;;22.50;10.20;;;;;;;0.24;100.00;102642.97;7389421;19;20186;-46
2022/03/01 01:30:02;;;;;;;21.48;9.50;;;;;;;0.48;100.00;102635.44;7391088;19;20131;-47
2022/03/01 01:32:32;;;;;;;22.30;10.13;;;;;;;0.38;100.00;102639.47;7388930;19;20190;-46
2022/03/01 01:35:01;;;;;;;20.65;9.57;;;;;;;0.51;100.00;102636.66;7390414;19;20161;-47
2022/03/01 01:37:31;;;;;;;22.40;9.13;;;;;;;0.44;100.00;102639.25;7389343;19;20186;-48
2022/03/01 01:40:03;;;;;;;24.50;10.38;;;;;;;0.51;100.00;102635.78;7393748;19;20130;-47
2022/03/01 01:42:33;;;;;;;21.90;10.07;;;;;;;0.49;100.00;102632.16;7388643;19;20201;-47
2022/03/01 01:45:03;;;;;;;23.05;10.50;;;;;;;0.50;100.00;102631.41;7391051;19;20162;-48
2022/03/01 01:47:47;;;;;;;20.90;9.50;;;;;;;0.71;100.00;102624.41;7388011;19;20925;-47
2022/03/01 01:50:17;;;;;;;26.45;10.45;;;;;;;0.67;100.00;102624.06;7390948;19;20123;-52
2022/03/01 01:52:47;;;;;;;21.00;9.48;;;;;;;0.44;100.00;102618.03;7388020;19;20196;-48
2022/03/01 01:55:21;;;;;;;24.42;9.80;;;;;;;0.55;100.00;102612.50;7390409;19;20162;-46
2022/03/01 01:57:58;;;;;;;22.20;10.32;;;;;;;0.50;100.00;102618.72;7388034;19;20660;-50
2022/03/01 02:00:28;;;;;;;23.38;10.30;;;;;;;0.52;100.00;102613.06;7391834;19;20131;-48
2022/03/01 02:02:59;;;;;;;21.67;10.05;;;;;;;0.55;100.00;102616.72;7386296;19;20525;-51
2022/03/01 02:05:30;;;;;;;27.25;9.15;;;;;;;0.43;100.00;102621.28;7393401;19;20171;-49
2022/03/01 02:08:00;;;;;;;23.25;10.27;;;;;;;0.38;100.00;102611.53;7395221;19;20210;-48
2022/03/01 02:10:32;;;;;;;20.50;8.93;;;;;;;0.58;100.00;102615.41;7402249;19;20141;-47
2022/03/01 02:13:02;;;;;;;22.75;9.00;;;;;;;0.44;100.00;102618.94;7395546;19;20194;-47
2022/03/01 02:15:31;;;;;;;21.65;9.70;;;;;;;0.42;100.00;102611.88;7396092;19;20169;-47
2022/03/01 02:18:01;;;;;;;24.45;8.90;;;;;;;0.35;100.00;102607.72;7394393;19;20210;-47
2022/03/01 02:20:33;;;;;;;26.08;10.25;;;;;;;0.35;100.00;102598.47;7398028;19;20150;-47
2022/03/01 02:23:04;;;;;;;19.10;8.23;;;;;;;0.35;100.00;102603.56;7393294;19;20190;-49
2022/03/01 02:25:33;;;;;;;21.55;9.40;;;;;;;0.14;100.00;102589.34;7396036;19;20165;-47
2022/03/01 02:28:04;;;;;;;19.15;8.57;;;;;;;0.37;100.00;102591.94;7396648;19;20201;-49
2022/03/01 02:30:34;;;;;;;19.42;8.68;;;;;;;0.31;100.00;102596.31;7401726;19;20138;-48
2022/03/01 02:33:03;;;;;;;21.80;9.57;;;;;;;0.19;100.00;102583.16;7397799;19;20535;-47
2022/03/01 02:35:37;;;;;;;21.30;10.45;;;;;;;0.41;100.00;102580.47;7399461;19;20162;-49
2022/03/01 02:38:07;;;;;;;20.83;9.88;;;;;;;0.40;100.00;102576.13;7397395;19;20527;-46
2022/03/01 02:40:36;;;;;;;23.90;8.73;;;;;;;0.12;100.00;102573.03;7401054;19;20149;-49
2022/03/01 02:43:07;;;;;;;23.50;8.95;;;;;;;0.07;100.00;102567.44;7390763;19;20201;-46
2022/03/01 02:45:37;;;;;;;23.50;9.85;;;;;;;0.12;100.00;102566.31;7395395;19;20182;-47
2022/03/01 02:48:07;;;;;;;21.08;9.57;;;;;;;0.10;100.00;102574.50;7392955;19;20194;-47
2022/03/01 02:50:39;;;;;;;28.17;9.18;;;;;;;0.05;100.00;102571.44;7396623;19;20582;-46
2022/03/01 02:53:09;;;;;;;23.05;8.98;;;;;;;0.03;100.00;102572.91;7394701;19;20189;-48
2022/03/01 02:55:40;;;;;;;25.58;9.68;;;;;;;0.25;100.00;102577.84;7397375;19;20137;-48
2022/03/01 02:58:09;;;;;;;26.65;9.93;;;;;;;0.18;100.00;102577.91;7392644;19;20186;-49
2022/03/01 03:00:42;;;;;;;25.23;10.35;;;;;;;0.31;100.00;102570.91;7394694;19;20623;-49
2022/03/01 03:03:11;;;;;;;26.45;11.05;;;;;;;0.21;100.00;102573.19;7390469;19;20190;-49
2022/03/01 03:05:43;;;;;;;21.73;9.63;;;;;;;0.35;100.00;102585.78;7397314;19;20638;-46
2022/03/01 03:08:13;;;;;;;21.02;9.68;;;;;;;0.06;100.00;102582.50;7391811;19;20202;-47
2022/03/01 03:10:44;;;;;;;21.45;9.48;;;;;;;0.12;100.00;102576.47;7397217;19;20131;-49
2022/03/01 03:13:14;;;;;;;23.10;10.00;;;;;;;-0.02;100.00;102584.16;7393964;19;20533;-50
2022/03/01 03:15:45;;;;;;;21.40;9.20;;;;;;;-0.08;100.00;102583.47;7395703;19;20135;-48
2022/03/01 03:18:15;;;;;;;20.80;9.00;;;;;;;-0.10;100.00;102582.38;7394101;19;20230;-47
2022/03/01 03:20:49;;;;;;;19.58;9.05;;;;;;;0.01;100.00;102574.38;7401063;19;20476;-48
2022/03/01 03:23:19;;;;;;;20.75;9.32;;;;;;;-0.01;100.00;102578.34;7392344;19;20206;-48
2022/03/01 03:25:48;;;;;;;21.50;9.98;;;;;;;0.03;100.00;102572.91;7396326;19;20494;-48
2022/03/01 03:28:17;;;;;;;32.47;9.85;;;;;;;0.01;100.00;102564.22;7392633;19;20540;-48
2022/03/01 03:30:49;;;;;;;18.35;9.20;;;;;;;0.08;100.00;102560.72;7396463;19;20134;-47
2022/03/01 03:33:19;;;;;;;22.58;10.02;;;;;;;-0.05;100.00;102568.59;7392920;19;20195;-50
2022/03/01 03:35:54;;;;;;;29.38;10.23;;;;;;;-0.15;100.00;102575.13;7395829;19;20154;-49
2022/03/01 03:38:24;;;;;;;26.98;9.73;;;;;;;-0.46;100.00;102574.16;7391789;19;20190;-48
2022/03/01 03:40:53;;;;;;;22.50;9.45;;;;;;;-0.45;100.00;102575.06;7396147;19;20137;-49
2022/03/01 03:43:23;;;;;;;26.67;10.05;;;;;;;-0.34;100.00;102569.59;7390561;19;20523;-47
2022/03/01 03:45:54;;;;;;;26.50;9.60;;;;;;;-0.44;100.00;102565.13;7395942;19;20135;-47
2022/03/01 03:48:23;;;;;;;22.95;9.70;;;;;;;-0.11;100.00;102560.28;7391455;19;20198;-50
2022/03/01 03:50:58;;;;;;;17.98;8.90;;;;;;;-0.14;100.00;102573.53;7395930;19;20135;-49
2022/03/01 03:53:27;;;;;;;25.27;9.80;;;;;;;-0.19;100.00;102575.53;7390057;19;20182;-48
2022/03/01 03:55:57;;;;;;;20.63;9.32;;;;;;;-0.21;100.00;102566.81;7395974;19;20130;-46
2022/03/01 03:58:26;;;;;;;22.52;9.52;;;;;;;-0.32;100.00;102567.22;7391580;19;20194;-49
2022/03/01 04:00:58;;;;;;;21.52;9.23;;;;;;;-0.35;100.00;102567.81;7395872;19;20140;-48
2022/03/01 04:03:28;;;;;;;22.63;10.60;;;;;;;-0.26;100.00;102561.97;7388787;19;20183;-49
2022/03/01 04:06:02;;;;;;;25.08;9.70;;;;;;;-0.43;100.00;102553.31;7395618;19;20144;-49
2022/03/01 04:08:31;;;;;;;21.80;9.75;;;;;;;-0.42;100.00;102543.34;7394076;19;20190;-47
2022/03/01 04:11:01;;;;;;;23.45;9.52;;;;;;;-0.42;100.00;102538.28;7395178;19;20141;-49
2022/03/01 04:13:30;;;;;;;22.90;9.82;;;;;;;-0.46;100.00;102542.84;7390799;19;20273;-50
2022/03/01 04:16:03;;;;;;;21.05;9.90;;;;;;;-0.25;100.00;102543.47;7395185;19;20139;-47
2022/03/01 04:18:32;;;;;;;20.50;8.70;;;;;;;-0.26;100.00;102544.22;7393183;19;20182;-48
2022/03/01 04:21:07;;;;;;;20.67;8.82;;;;;;;-0.29;100.00;102543.09;7393913;19;20127;-47
2022/03/01 04:23:36;;;;;;;25.27;9.52;;;;;;;-0.32;100.00;102546.94;7393694;19;20186;-46
2022/03/01 04:26:06;;;;;;;22.63;8.77;;;;;;;-0.53;100.00;102531.06;7394865;19;20127;-46
2022/03/01 04:28:36;;;;;;;21.80;10.05;;;;;;;-0.39;100.00;102534.28;7390741;19;20178;-47
2022/03/01 04:31:06;;;;;;;21.35;9.30;;;;;;;-0.27;100.00;102533.16;7394115;19;20141;-46
2022/03/01 04:33:36;;;;;;;24.15;9.60;;;;;;;-0.26;100.00;102532.41;7392236;19;20190;-47
2022/03/01 04:36:11;;;;;;;21.00;8.98;;;;;;;-0.42;100.00;102523.06;7390969;19;20135;-51
2022/03/01 04:38:40;;;;;;;23.80;9.55;;;;;;;-0.43;100.00;102527.94;7393235;19;20199;-48
2022/03/01 04:41:10;;;;;;;21.08;9.00;;;;;;;-0.62;100.00;102535.09;7390420;19;20127;-47
2022/03/01 04:43:40;;;;;;;24.52;8.70;;;;;;;-0.69;100.00;102529.31;7392990;19;20675;-49
2022/03/01 04:46:11;;;;;;;23.23;9.50;;;;;;;-0.61;100.00;102517.50;7390550;19;20586;-47
2022/03/01 04:48:40;;;;;;;23.02;8.80;;;;;;;-0.91;100.00;102527.53;7391872;19;20154;-49
2022/03/01 04:51:21;;;;;;;25.95;9.95;;;;;;;-0.89;100.00;102527.00;7387145;19;20162;-46
2022/03/01 04:53:50;;;;;;;22.98;9.68;;;;;;;-0.86;100.00;102536.59;7393133;19;20158;-47
2022/03/01 04:56:21;;;;;;;24.13;9.10;;;;;;;-0.82;100.00;102536.22;7389889;19;20122;-46
2022/03/01 04:58:50;;;;;;;26.85;9.38;;;;;;;-0.51;100.00;102544.81;7392834;19;20139;-46
2022/03/01 05:01:20;;;;;;;19.85;8.68;;;;;;;-0.29;100.00;102529.53;7388605;19;20715;-48
2022/03/01 05:03:49;;;;;;;18.63;8.93;;;;;;;-0.61;100.00;102529.28;7392321;19;20166;-46
2022/03/01 05:06:22;;;;;;;22.77;9.15;;;;;;;-0.55;100.00;102530.00;7389769;19;20129;-50
2022/03/01 05:08:51;;;;;;;22.08;9.88;;;;;;;-0.84;100.00;102527.50;7391730;19;20480;-48
2022/03/01 05:11:21;;;;;;;23.20;10.05;;;;;;;-0.72;100.00;102523.88;7393098;19;20134;-48
2022/03/01 05:13:51;;;;;;;22.52;9.23;;;;;;;-0.66;100.00;102531.31;7392472;19;20503;-48
2022/03/01 05:16:20;;;;;;;23.63;9.38;;;;;;;-0.70;100.00;102524.06;7387782;19;20123;-49
2022/03/01 05:18:50;;;;;;;24.23;10.20;;;;;;;-0.62;100.00;102524.94;7392584;19;20187;-47
2022/03/01 05:21:22;;;;;;;20.13;9.20;;;;;;;-0.47;100.00;102531.78;7390255;19;20123;-48
2022/03/01 05:23:51;;;;;;;23.58;9.68;;;;;;;-1.10;100.00;102531.38;7391893;19;20169;-46
2022/03/01 05:26:21;;;;;;;23.75;9.07;;;;;;;-0.98;100.00;102531.88;7390011;19;20145;-48
2022/03/01 05:28:51;;;;;;;21.23;9.30;;;;;;;-0.83;100.00;102532.78;7391776;19;20126;-50
2022/03/01 05:31:27;;;;;;;19.65;9.45;;;;;;;-0.96;100.00;102530.41;7387142;19;20474;-48
2022/03/01 05:33:57;;;;;;;25.58;9.20;;;;;;;-0.84;100.00;102530.03;7391595;19;20228;-46
2022/03/01 05:36:29;;;;;;;22.55;10.07;;;;;;;-0.91;100.00;102525.91;7389345;19;20133;-47
2022/03/01 05:38:59;;;;;;;25.80;10.00;;;;;;;-0.77;100.00;102527.50;7392112;19;20127;-48
2022/03/01 05:41:28;;;;;;;30.08;13.00;;;;;;;-0.49;100.00;102533.25;7396706;19;20210;-47
2022/03/01 05:43:58;;;;;;;23.48;10.40;;;;;;;-0.82;100.00;102538.75;7398884;19;20166;-46
2022/03/01 05:46:29;;;;;;;19.90;9.82;;;;;;;-0.97;100.00;102535.34;7395699;19;20233;-48
2022/03/01 05:48:59;;;;;;;23.45;10.10;;;;;;;-0.85;100.00;102528.25;7398341;19;20156;-49
2022/03/01 05:51:31;;;;;;;31.15;9.43;;;;;;;-0.72;100.00;102538.19;7395932;19;20190;-50
2022/03/01 05:54:01;;;;;;;22.25;9.63;;;;;;;-0.80;100.00;102529.69;7398863;19;20162;-48
2022/03/01 05:56:30;;;;;;;26.20;10.10;;;;;;;-0.92;100.00;102528.25;7395594;19;20198;-49
2022/03/01 05:59:02;;;;;;;21.83;10.13;;;;;;;-0.72;100.00;102528.06;7398392;19;20144;-47
2022/03/01 06:01:32;;;;;;;23.73;10.23;;;;;;;-0.79;100.00;102533.13;7395836;19;20662;-50
2022/03/01 06:04:04;;;;;;;25.88;11.65;;;;;;;0.34;100.00;102524.66;7397920;19;20158;-48
2022/03/01 06:06:37;;;;;;;30.48;13.57;;;;;;;1.08;100.00;102536.97;7393899;19;20551;-46
2022/03/01 06:09:06;;;;;;;39.70;16.58;;;;;;;1.23;100.00;102540.22;7396552;19;20142;-51
2022/03/01 06:11:36;;;;;;;34.95;14.88;;;;;;;1.68;100.00;102534.84;7392560;19;20513;-48
2022/03/01 06:14:07;;;;;;;26.73;11.52;;;;;;;1.14;100.00;102537.63;7398822;19;20175;-48
2022/03/01 06:16:37;;;;;;;31.17;13.85;;;;;;;1.97;100.00;102543.75;7390109;19;20201;-50
2022/03/01 06:19:08;;;;;;;36.70;15.00;;;;;;;2.28;100.00;102540.25;7397898;19;20130;-46
2022/03/01 06:21:41;;;;;;;34.73;14.30;;;;;;;2.39;100.00;102545.53;7395578;19;20190;-48
2022/03/01 06:24:11;;;;;;;69.37;30.37;;;;;;;2.10;100.00;102551.94;7396199;19;20499;-53
2022/03/01 06:26:41;;;;;;;76.72;33.88;;;;;;;2.13;100.00;102543.72;7394209;19;20402;-47
2022/03/01 06:29:11;;;;;;;43.57;20.70;;;;;;;1.63;100.00;102547.81;7397571;19;20607;-48
2022/03/01 06:31:40;;;;;;;23.33;11.37;;;;;;;0.83;100.00;102548.63;7393284;19;20401;-47
2022/03/01 06:34:12;;;;;;;22.67;10.70;;;;;;;0.07;100.00;102533.53;7396729;19;20416;-50
2022/03/01 06:36:45;;;;;;;24.13;10.50;;;;;;;-0.38;100.00;102536.06;7393418;19;20195;-49
2022/03/01 06:39:15;;;;;;;28.45;11.30;;;;;;;-0.52;100.00;102526.91;7397854;19;20130;-49
2022/03/01 06:41:44;;;;;;;23.42;10.38;;;;;;;-0.70;100.00;102526.59;7394062;19;20292;-49
2022/03/01 06:44:16;;;;;;;23.60;10.57;;;;;;;-0.87;100.00;102534.78;7395459;19;20525;-50
2022/03/01 06:46:46;;;;;;;24.33;10.55;;;;;;;-1.10;100.00;102541.50;7393380;19;20194;-48
2022/03/01 06:49:16;;;;;;;34.42;11.38;;;;;;;-1.06;100.00;102542.75;7397119;19;20154;-47
2022/03/01 06:51:48;;;;;;;24.42;10.55;;;;;;;-1.01;100.00;102534.06;7392107;19;20190;-47
2022/03/01 06:54:17;;;;;;;22.40;10.55;;;;;;;-0.88;100.00;102522.84;7396348;19;20155;-50
2022/03/01 06:56:48;;;;;;;23.27;10.93;;;;;;;-0.86;100.00;102526.44;7394240;19;20203;-51
2022/03/01 06:59:17;;;;;;;25.77;11.07;;;;;;;-1.08;100.00;102521.38;7396039;19;20162;-51
2022/03/01 07:01:47;;;;;;;27.33;11.20;;;;;;;-1.17;100.00;102510.19;7392640;19;20949;-49
2022/03/01 07:04:16;;;;;;;24.60;10.77;;;;;;;-1.28;100.00;102521.59;7395346;19;20167;-48
2022/03/01 07:06:50;;;;;;;23.30;10.40;;;;;;;-1.41;100.00;102520.16;7390718;19;20197;-50
2022/03/01 07:09:19;;;;;;;23.85;11.15;;;;;;;-1.34;100.00;102513.28;7397155;19;20130;-50
2022/03/01 07:11:49;;;;;;;24.77;11.60;;;;;;;-1.25;100.00;102522.88;7393865;19;20664;-47
2022/03/01 07:14:19;;;;;;;23.67;10.48;;;;;;;-1.24;100.00;102522.13;7395919;19;20165;-47
2022/03/01 07:16:49;;;;;;;33.75;13.18;;;;;;;-1.26;100.00;102530.28;7393077;19;20198;-51
2022/03/01 07:19:19;;;;;;;27.25;11.98;;;;;;;-1.23;100.00;102531.53;7399068;19;20595;-48
2022/03/01 07:21:51;;;;;;;24.45;11.13;;;;;;;-1.30;100.00;102529.00;7392421;19;20194;-53
2022/03/01 07:24:21;;;;;;;26.02;11.63;;;;;;;-1.18;100.00;102538.78;7395265;19;20645;-51
2022/03/01 07:26:50;;;;;;;28.30;10.98;;;;;;;-1.22;100.00;102533.34;7393080;19;20293;-49
2022/03/01 07:29:20;;;;;;;23.90;9.80;;;;;;;-1.25;100.00;102535.53;7395835;19;20127;-48
2022/03/01 07:31:49;;;;;;;26.35;11.25;;;;;;;-1.11;100.00;102533.72;7389812;19;20266;-49
2022/03/01 07:34:24;;;;;;;30.10;11.55;;;;;;;-0.96;100.00;102522.81;7399470;19;20166;-47
2022/03/01 07:36:57;;;;;;;29.17;11.80;;;;;;;-0.91;100.00;102519.94;7392412;19;20186;-47
2022/03/01 07:39:26;;;;;;;25.02;10.63;;;;;;;-0.86;100.00;102528.97;7393879;19;20143;-48
2022/03/01 07:41:56;;;;;;;25.77;10.70;;;;;;;-0.97;100.00;102533.69;7392845;19;20194;-46
2022/03/01 07:44:25;;;;;;;33.38;13.13;;;;;;;-0.92;100.00;102529.16;7393934;19;20689;-50
2022/03/01 07:46:55;;;;;;;25.90;12.18;;;;;;;-0.89;100.00;102527.00;7391528;19;20217;-46
2022/03/01 07:49:24;;;;;;;33.15;10.90;;;;;;;-1.03;100.00;102530.44;7394981;19;20127;-50
2022/03/01 07:51:56;;;;;;;27.58;10.63;;;;;;;-1.06;100.00;102524.09;7392313;19;20637;-48
2022/03/01 07:54:26;;;;;;;25.48;11.32;;;;;;;-1.03;100.00;102519.41;7394323;19;20167;-48
2022/03/01 07:56:56;;;;;;;26.02;10.73;;;;;;;-0.91;100.00;102517.41;7389992;19;20209;-50
2022/03/01 07:59:25;;;;;;;24.77;10.77;;;;;;;-0.92;100.00;102518.13;7394873;19;20134;-49
2022/03/01 08:01:56;;;;;;;28.23;10.63;;;;;;;-0.88;100.00;102517.78;7390783;19;20211;-47
2022/03/01 08:04:25;;;;;;;27.10;11.18;;;;;;;-0.69;100.00;102518.25;7393941;19;20165;-48
2022/03/01 08:06:58;;;;;;;26.15;11.35;;;;;;;-0.51;100.00;102514.38;7390761;19;20341;-48
2022/03/01 08:09:27;;;;;;;27.35;11.60;;;;;;;-0.39;100.00;102513.97;7394426;19;20145;-51
2022/03/01 08:11:58;;;;;;;28.02;12.70;;;;;;;-0.46;100.00;102517.47;7372392;19;20190;-47
2022/03/01 08:14:30;;;;;;;29.92;11.35;;;;;;;-0.55;100.00;102504.63;7392946;19;20169;-49
2022/03/01 08:16:59;;;;;;;27.13;11.68;;;;;;;-0.44;100.00;102519.47;7389083;19;20262;-48
2022/03/01 08:19:32;;;;;;;22.85;10.07;;;;;;;-0.36;100.00;102521.97;7392367;19;20550;-49
2022/03/01 08:22:04;;;;;;;23.58;11.02;;;;;;;-0.37;100.00;102515.97;7391706;19;20668;-47
2022/03/01 08:24:34;;;;;;;27.35;11.90;;;;;;;-0.19;100.00;102513.72;7393127;19;20175;-52
2022/03/01 08:27:03;;;;;;;24.58;11.43;;;;;;;-0.04;100.00;102512.03;7388500;19;20186;-49
2022/03/01 08:29:33;;;;;;;33.05;12.13;;;;;;;0.02;100.00;102515.25;7392722;19;20133;-48
2022/03/01 08:32:03;;;;;;;26.80;11.48;;;;;;;-0.22;100.00;102514.28;7391574;19;20201;-46
2022/03/01 08:34:32;;;;;;;26.40;11.07;;;;;;;-0.10;100.00;102509.69;7392133;19;20538;-49
2022/03/01 08:37:07;;;;;;;26.75;11.35;;;;;;;-0.02;100.00;102518.16;7390739;19;20645;-49
2022/03/01 08:39:37;;;;;;;29.13;11.55;;;;;;;-0.02;100.00;102515.63;7393365;19;20122;-50
2022/03/01 08:42:06;;;;;;;29.20;10.75;;;;;;;-0.06;100.00;102510.97;7389541;19;20193;-48
2022/03/01 08:44:36;;;;;;;28.17;12.32;;;;;;;0.11;100.00;102502.69;7393182;19;20218;-47
2022/03/01 08:47:06;;;;;;;26.73;12.07;;;;;;;0.35;100.00;102503.59;7390172;19;20626;-48
2022/03/01 08:49:35;;;;;;;31.05;12.13;;;;;;;0.27;100.00;102507.84;7396012;19;20127;-49
2022/03/01 08:52:14;;;;;;;25.80;11.40;;;;;;;0.29;100.00;102501.28;7391923;19;20185;-47
2022/03/01 08:54:44;;;;;;;25.83;12.82;;;;;;;0.24;100.00;102504.94;7390588;19;20657;-46
2022/03/01 08:57:14;;;;;;;25.75;11.32;;;;;;;0.20;100.00;102503.72;7393817;19;20190;-49
2022/03/01 08:59:43;;;;;;;28.42;12.05;;;;;;;0.35;100.00;102501.97;7396845;19;20131;-47
2022/03/01 09:02:13;;;;;;;30.88;12.70;;;;;;;0.23;100.00;102505.69;7386787;19;20194;-48
2022/03/01 09:04:43;;;;;;;23.63;10.98;;;;;;;0.27;100.00;102500.22;7396520;19;20261;-48
2022/03/01 09:07:15;;;;;;;25.52;12.07;;;;;;;0.42;100.00;102500.13;7386705;19;20190;-48
2022/03/01 09:09:45;;;;;;;26.52;12.05;;;;;;;0.44;100.00;102506.25;7392389;19;20154;-48
2022/03/01 09:12:14;;;;;;;32.20;13.77;;;;;;;0.69;100.00;102504.81;7390914;19;20190;-46
2022/03/01 09:14:44;;;;;;;32.33;12.98;;;;;;;0.90;100.00;102507.88;7389969;19;20545;-48
2022/03/01 09:17:13;;;;;;;30.15;13.10;;;;;;;1.00;100.00;102507.25;7389116;19;20190;-46
2022/03/01 09:19:43;;;;;;;26.77;12.07;;;;;;;1.17;100.00;102502.34;7394120;19;20534;-45
2022/03/01 09:22:15;;;;;;;34.35;12.32;;;;;;;1.10;100.00;102515.13;7388953;19;20689;-47
2022/03/01 09:24:45;;;;;;;31.88;12.20;;;;;;;1.10;100.00;102515.13;7392991;19;20226;-51
2022/03/01 09:27:15;;;;;;;26.70;11.90;;;;;;;0.84;100.00;102517.38;7388340;19;20200;-46
2022/03/01 09:29:47;;;;;;;27.13;11.55;;;;;;;0.59;100.00;102513.06;7394552;19;20127;-46
2022/03/01 09:32:17;;;;;;;25.50;10.15;;;;;;;0.62;100.00;102518.47;7387283;19;20190;-46
2022/03/01 09:34:47;;;;;;;31.05;12.57;;;;;;;0.77;100.00;102513.28;7391317;19;20176;-46
2022/03/01 09:37:19;;;;;;;28.98;12.98;;;;;;;1.00;100.00;102510.69;7389326;19;20201;-46
2022/03/01 09:39:49;;;;;;;27.27;11.88;;;;;;;1.25;100.00;102514.97;7391628;19;20190;-47
2022/03/01 09:42:19;;;;;;;26.52;11.60;;;;;;;1.29;100.00;102512.03;7389144;19;20190;-48
2022/03/01 09:44:49;;;;;;;27.85;12.95;;;;;;;1.38;100.00;102510.47;7394290;19;20170;-46
2022/03/01 09:47:19;;;;;;;34.13;13.13;;;;;;;1.57;100.00;102513.34;7385684;19;20685;-50
2022/03/01 09:49:49;;;;;;;30.40;13.13;;;;;;;1.65;100.00;102518.34;7391489;19;20370;-47
2022/03/01 09:52:21;;;;;;;30.00;12.43;;;;;;;1.88;100.00;102513.13;7388124;19;20200;-50
2022/03/01 09:54:52;;;;;;;20.20;9.03;;;;;;;1.83;100.00;102519.38;7391048;19;20163;-45
2022/03/01 09:57:22;;;;;;;28.10;12.83;;;;;;;1.61;100.00;102523.13;7387704;19;20583;-47
2022/03/01 09:59:53;;;;;;;26.53;12.10;;;;;;;1.57;100.00;102525.16;7390779;19;20382;-47
2022/03/01 10:02:22;;;;;;;36.43;15.07;;;;;;;1.67;100.00;102517.78;7384085;19;20403;-45
2022/03/01 10:04:59;;;;;;;36.37;13.07;;;;;;;1.84;100.00;102518.66;7392186;19;20402;-47
2022/03/01 10:07:32;;;;;;;22.13;7.70;;;;;;;1.89;100.00;102515.84;7387791;19;20415;-51
2022/03/01 10:10:07;;;;;;;29.80;12.73;;;;;;;1.82;100.00;102515.03;7391351;19;20399;-47
2022/03/01 10:12:37;;;;;;;31.53;15.30;;;;;;;2.28;100.00;102509.66;7389959;19;20401;-48
2022/03/01 10:15:10;;;;;;;33.47;14.30;;;;;;;2.72;100.00;102508.94;7390788;19;20434;-49
2022/03/01 10:17:41;;;;;;;33.47;13.80;;;;;;;3.08;100.00;102508.31;7387518;19;20414;-47
2022/03/01 10:20:13;;;;;;;45.10;17.60;;;;;;;2.94;100.00;102514.59;7390334;19;20387;-53
2022/03/01 10:22:48;;;;;;;30.33;13.10;;;;;;;3.03;100.00;102517.16;7387225;19;20418;-47
2022/03/01 10:25:20;;;;;;;29.30;12.90;;;;;;;3.10;100.00;102517.06;7390710;19;20415;-48
2022/03/01 10:27:51;;;;;;;26.03;11.80;;;;;;;2.76;100.00;102518.72;7395003;19;20425;-47
2022/03/01 10:30:25;;;;;;;25.93;13.03;;;;;;;2.63;100.00;102503.84;7399942;19;20730;-48
2022/03/01 10:33:06;;;;;;;31.57;14.53;;;;;;;2.78;100.00;102508.69;7395163;19;20411;-46
2022/03/01 10:35:36;;;;;;;35.50;14.10;;;;;;;2.84;100.00;102511.88;7395036;19;20418;-48
2022/03/01 10:38:09;;;;;;;23.13;11.70;;;;;;;2.72;100.00;102516.59;7392332;19;20407;-47
2022/03/01 10:40:41;;;;;;;28.63;12.40;;;;;;;2.53;100.00;102513.84;7397832;19;20901;-46
2022/03/01 10:43:14;;;;;;;34.60;12.27;;;;;;;2.54;100.00;102519.09;7394744;19;20422;-48
2022/03/01 10:45:50;;;;;;;44.17;18.90;;;;;;;3.45;100.00;102506.00;7397728;19;20428;-47
2022/03/01 10:48:26;;;;;;;27.30;12.77;;;;;;;3.76;100.00;102514.09;7393870;19;20989;-47
2022/03/01 10:51:01;;;;;;;27.87;13.07;;;;;;;3.85;100.00;102518.31;7396769;19;20487;-47
2022/03/01 10:53:35;;;;;;;38.67;13.77;;;;;;;3.10;100.00;102518.69;7391355;19;20495;-48
2022/03/01 10:56:06;;;;;;;31.80;13.13;;;;;;;3.45;100.00;102515.28;7397954;19;20392;-46
2022/03/01 10:58:37;;;;;;;26.03;13.23;;;;;;;4.64;100.00;102518.13;7395548;19;20423;-46
2022/03/01 11:01:07;;;;;;;29.80;13.10;;;;;;;4.40;100.00;102524.34;7398587;19;20920;-53
2022/03/01 11:03:37;;;;;;;31.87;14.97;;;;;;;4.07;100.00;102515.25;7397554;19;20879;-47
2022/03/01 11:06:08;;;;;;;56.10;28.30;;;;;;;4.35;100.00;102516.25;7394835;19;20471;-50
2022/03/01 11:08:42;;;;;;;56.90;28.80;;;;;;;5.14;100.00;102515.03;7392404;19;20391;-47
2022/03/01 11:11:13;;;;;;;44.47;20.63;;;;;;;5.57;100.00;102505.22;7394179;19;20403;-48
2022/03/01 11:13:46;;;;;;;34.33;16.10;;;;;;;5.41;100.00;102505.50;7395655;19;20467;-51
2022/03/01 11:16:45;;;;;;;27.60;13.00;;;;;;;5.48;100.00;102510.41;7393793;19;20392;-48
2022/03/01 11:19:38;;;;;;;38.07;17.10;;;;;;;5.91;100.00;102504.78;7395762;19;20404;-49
2022/03/01 11:22:09;;;;;;;31.90;14.63;;;;;;;5.25;100.00;102510.88;7394939;19;20477;-50
2022/03/01 11:24:44;;;;;;;31.57;15.43;;;;;;;5.77;100.00;102504.47;7399369;19;20770;-47
2022/03/01 11:27:13;;;;;;;27.93;13.43;;;;;;;6.17;100.00;102501.09;7393663;19;20511;-49
2022/03/01 11:29:43;;;;;;;28.33;13.77;;;;;;;5.57;100.00;102505.22;7395445;19;20402;-47